Mount Olive, Mississippi
Current Conditions -  °F | °C
As of 2:55 PM on Thursday 20 Nov 2014 (Local Time) from KPIB Reporting Station
Clear Clear  
Wind Chill: 66°   Ceiling: Unl
Heat Index: 66°   Visibility: 10mi
Dew Point: 41°   Wind: 5mph
Humidity: 40%   Direction: 240°WSW
Pressure: 30.2"   Gusts: NA
Location:  31.76°N, 89.66°W
Report Text: KPIB 202055Z AUTO 24004KT 10SM CLR 19/05 A3020 RMK AO1 57017
Loading
Personal Weather Stations






























Interactive Weather Map New forecast layout! Learn more

10-Day Weather Forecast

Advertisements
Track Severe Weather on mobile